Time;durP1;ratioP1;P1;durP2;ratioP2;P2;SDS_P1;SDS_P2;PMS_P1;PMS_P2;Temp;Humidity;BMP_temperature;BMP_pressure;BME280_temperature;BME280_humidity;BME280_pressure;Samples;Min_cycle;Max_cycle;Signal;HPM_P1;HPM_P2
2022/09/24 00:01:32;;;;;;;6.63;2.13;;;13.80;99.90;;;;;;5056014;28;20059;-59
2022/09/24 00:04:04;;;;;;;7.95;1.88;;;13.80;99.90;;;;;;5051700;28;20045;-58
2022/09/24 00:06:35;;;;;;;10.85;2.95;;;13.80;99.90;;;;;;5051893;28;20045;-59
2022/09/24 00:09:02;;;;;;;6.78;2.30;;;13.70;99.90;;;;;;5051959;28;20622;-59
2022/09/24 00:11:29;;;;;;;9.85;2.20;;;13.70;99.90;;;;;;5050441;28;20044;-59
2022/09/24 00:13:56;;;;;;;10.00;2.33;;;13.70;99.90;;;;;;5050075;28;20131;-59
2022/09/24 00:16:24;;;;;;;8.25;2.15;;;13.60;99.90;;;;;;5050487;28;20059;-59
2022/09/24 00:18:52;;;;;;;4.43;1.67;;;13.60;99.90;;;;;;5051401;28;20048;-59
2022/09/24 00:21:24;;;;;;;9.77;1.95;;;13.60;99.90;;;;;;5049954;28;20053;-59
2022/09/24 00:23:52;;;;;;;8.23;2.70;;;13.50;99.90;;;;;;5050091;28;20079;-59
2022/09/24 00:29:05;;;;;;;5.88;2.30;;;13.50;99.90;;;;;;5051190;28;20509;-58
2022/09/24 00:31:31;;;;;;;9.27;2.30;;;13.40;99.90;;;;;;5050238;28;20041;-59
2022/09/24 00:33:59;;;;;;;10.57;2.22;;;13.40;99.90;;;;;;5051559;28;20338;-59
2022/09/24 00:36:26;;;;;;;10.70;2.33;;;13.40;99.90;;;;;;5050948;28;20542;-58
2022/09/24 00:38:55;;;;;;;9.82;2.45;;;13.30;99.90;;;;;;5033612;28;20140;-59
2022/09/24 00:41:23;;;;;;;8.10;2.42;;;13.20;99.90;;;;;;5049165;28;20053;-57
2022/09/24 00:43:50;;;;;;;6.72;2.33;;;13.20;99.90;;;;;;5045747;28;20059;-59
2022/09/24 00:46:47;;;;;;;10.05;1.85;;;13.20;99.90;;;;;;5050935;28;20542;-59
2022/09/24 00:49:15;;;;;;;9.13;2.38;;;13.20;99.90;;;;;;5031517;28;20053;-59
2022/09/24 00:51:44;;;;;;;8.75;2.38;;;13.20;99.90;;;;;;5048647;28;20504;-59
2022/09/24 00:54:13;;;;;;;5.05;1.67;;;13.00;99.90;;;;;;5051363;28;20135;-60
2022/09/24 00:56:40;;;;;;;8.40;3.17;;;13.00;99.90;;;;;;5051198;28;20464;-59
2022/09/24 00:59:07;;;;;;;5.03;2.03;;;13.00;99.90;;;;;;5050282;28;20100;-59
2022/09/24 01:01:34;;;;;;;16.65;2.08;;;13.00;99.90;;;;;;5049789;28;20052;-59
2022/09/24 01:04:01;;;;;;;8.40;2.05;;;13.00;99.90;;;;;;5050044;28;20048;-57
2022/09/24 01:06:28;;;;;;;8.02;2.10;;;13.00;99.90;;;;;;5031785;28;20090;-57
2022/09/24 01:08:55;;;;;;;6.57;1.88;;;13.00;99.90;;;;;;5050540;28;20052;-59
2022/09/24 01:11:28;;;;;;;14.18;2.05;;;12.90;99.90;;;;;;5030791;28;20044;-57
2022/09/24 01:14:19;;;;;;;6.20;1.65;;;12.90;99.90;;;;;;5042706;28;20046;-58
2022/09/24 01:16:52;;;;;;;8.95;2.15;;;12.90;99.90;;;;;;5044139;28;20056;-59
2022/09/24 01:19:47;;;;;;;7.30;2.28;;;12.80;99.90;;;;;;5040716;28;20124;-56
2022/09/24 01:22:37;;;;;;;12.82;2.30;;;12.80;99.90;;;;;;5047901;28;20534;-58
2022/09/24 01:25:27;;;;;;;9.52;2.17;;;12.70;99.90;;;;;;5030122;28;20054;-58
2022/09/24 01:28:18;;;;;;;4.72;1.88;;;12.70;99.90;;;;;;5048235;28;20059;-59
2022/09/24 01:30:46;;;;;;;10.45;2.30;;;12.70;99.90;;;;;;5050937;28;20136;-57
2022/09/24 01:33:16;;;;;;;14.45;3.47;;;12.60;99.90;;;;;;5050643;28;20128;-58
2022/09/24 01:35:44;;;;;;;6.15;1.77;;;12.60;99.90;;;;;;5051061;28;20045;-59
2022/09/24 01:38:20;;;;;;;17.60;4.78;;;12.60;99.90;;;;;;5031029;28;20052;-57
2022/09/24 01:40:47;;;;;;;8.68;2.92;;;12.60;99.90;;;;;;5051151;28;20045;-59
2022/09/24 01:43:14;;;;;;;8.23;3.70;;;12.60;99.90;;;;;;5032969;28;20415;-58
2022/09/24 01:45:41;;;;;;;8.40;3.58;;;12.50;99.90;;;;;;5049576;28;20051;-58
2022/09/24 01:48:08;;;;;;;6.93;3.33;;;12.50;99.90;;;;;;5051296;28;20056;-58
2022/09/24 01:50:55;;;;;;;9.98;2.72;;;12.50;99.90;;;;;;5054170;28;20460;-57
2022/09/24 01:53:24;;;;;;;9.10;3.00;;;12.50;99.90;;;;;;5036377;28;20045;-58
2022/09/24 01:55:57;;;;;;;9.43;2.58;;;12.40;99.90;;;;;;5053305;28;20124;-62
2022/09/24 01:58:32;;;;;;;11.35;4.72;;;12.40;99.90;;;;;;5053164;28;20048;-60
2022/09/24 02:01:04;;;;;;;10.55;2.53;;;12.30;99.90;;;;;;5036431;28;20075;-59
2022/09/24 02:03:35;;;;;;;6.45;3.38;;;12.40;99.90;;;;;;5052882;28;20049;-59
2022/09/24 02:06:07;;;;;;;13.10;3.60;;;12.30;99.90;;;;;;5037195;28;20049;-59
2022/09/24 02:08:44;;;;;;;6.68;3.00;;;12.30;99.90;;;;;;5052528;28;20077;-59
2022/09/24 02:11:14;;;;;;;9.80;3.17;;;12.30;99.90;;;;;;5052925;28;20514;-59
2022/09/24 02:14:05;;;;;;;8.18;2.75;;;12.20;99.90;;;;;;5052600;28;20049;-60
2022/09/24 02:16:34;;;;;;;8.93;3.35;;;12.20;99.90;;;;;;5054283;28;20060;-58
2022/09/24 02:19:08;;;;;;;6.80;2.85;;;12.10;99.90;;;;;;5054112;28;20548;-56
2022/09/24 02:21:35;;;;;;;12.80;3.55;;;12.10;99.90;;;;;;5052870;28;20049;-57
2022/09/24 02:24:06;;;;;;;8.73;3.28;;;12.10;99.90;;;;;;5042043;28;20048;-58
2022/09/24 02:26:33;;;;;;;17.25;3.00;;;12.00;99.90;;;;;;5041612;28;20045;-58
2022/09/24 02:29:00;;;;;;;12.82;3.60;;;12.00;99.90;;;;;;5056496;28;20041;-59
2022/09/24 02:31:31;;;;;;;8.25;4.05;;;12.00;99.90;;;;;;5057402;28;20100;-59
2022/09/24 02:36:45;;;;;;;8.40;3.15;;;11.90;99.90;;;;;;5044011;28;20055;-58
2022/09/24 02:39:12;;;;;;;8.25;3.10;;;12.00;99.90;;;;;;5057146;28;20048;-59
2022/09/24 02:41:41;;;;;;;12.45;4.07;;;12.10;99.90;;;;;;5058647;28;20512;-60
2022/09/24 02:44:08;;;;;;;9.00;3.70;;;12.20;99.90;;;;;;5056963;28;20072;-58
2022/09/24 02:46:35;;;;;;;13.00;4.85;;;12.30;99.90;;;;;;5057159;28;20045;-60
2022/09/24 02:49:02;;;;;;;16.27;5.65;;;12.30;99.90;;;;;;5057416;28;20053;-58
2022/09/24 02:51:29;;;;;;;15.68;6.70;;;12.40;99.90;;;;;;5045902;28;20053;-59
2022/09/24 02:53:56;;;;;;;14.23;6.28;;;12.40;99.90;;;;;;5053877;28;20049;-60
2022/09/24 02:56:22;;;;;;;19.83;7.85;;;12.40;99.90;;;;;;5053275;28;20087;-59
2022/09/24 02:58:49;;;;;;;20.20;8.20;;;12.50;99.90;;;;;;5053824;28;20515;-59
2022/09/24 03:01:16;;;;;;;22.85;8.68;;;12.50;99.90;;;;;;5052541;28;20045;-60
2022/09/24 03:03:43;;;;;;;20.67;7.85;;;12.50;99.90;;;;;;5054385;28;20056;-59
2022/09/24 03:06:11;;;;;;;17.83;9.48;;;12.60;99.90;;;;;;5053718;28;20059;-60
2022/09/24 03:08:39;;;;;;;15.20;7.97;;;12.50;99.90;;;;;;5053927;28;20045;-58
2022/09/24 03:11:09;;;;;;;21.23;9.32;;;12.50;99.90;;;;;;5035903;28;20496;-60
2022/09/24 03:13:40;;;;;;;19.75;8.55;;;12.60;99.90;;;;;;5053941;28;20075;-59
2022/09/24 03:16:07;;;;;;;22.10;9.55;;;12.60;99.90;;;;;;5051871;28;20080;-59
2022/09/24 03:18:34;;;;;;;16.90;8.57;;;12.70;99.90;;;;;;5036045;28;20086;-59
2022/09/24 03:21:03;;;;;;;21.25;9.45;;;12.70;99.90;;;;;;5051689;28;20122;-59
2022/09/24 03:23:30;;;;;;;14.52;8.32;;;12.70;99.90;;;;;;5053219;28;20423;-60
2022/09/24 03:25:57;;;;;;;14.98;7.03;;;12.70;99.90;;;;;;5051805;28;20119;-59
2022/09/24 03:28:24;;;;;;;12.52;7.35;;;12.80;99.90;;;;;;5051990;28;20045;-60
2022/09/24 03:31:00;;;;;;;15.40;7.80;;;12.80;99.90;;;;;;5053085;28;20099;-59
2022/09/24 03:33:32;;;;;;;13.90;6.78;;;12.80;99.90;;;;;;5051820;28;20056;-59
2022/09/24 03:36:00;;;;;;;10.88;5.93;;;12.90;99.90;;;;;;5053645;28;20062;-60
2022/09/24 03:38:28;;;;;;;13.20;7.05;;;12.90;99.90;;;;;;5053405;28;20099;-59
2022/09/24 03:40:56;;;;;;;11.57;6.53;;;12.90;99.90;;;;;;5053394;28;20056;-58
2022/09/24 03:43:23;;;;;;;12.93;5.93;;;13.00;99.90;;;;;;5053225;28;20049;-59
2022/09/24 03:45:49;;;;;;;12.13;5.20;;;13.00;99.90;;;;;;5052533;28;20049;-59
2022/09/24 03:48:17;;;;;;;12.20;5.30;;;13.00;99.90;;;;;;5051390;28;20069;-59
2022/09/24 03:50:44;;;;;;;13.63;5.40;;;13.00;99.90;;;;;;5052329;28;20059;-59
2022/09/24 03:53:12;;;;;;;9.70;5.28;;;13.00;99.90;;;;;;5051903;28;20055;-59
2022/09/24 03:55:53;;;;;;;12.32;5.65;;;13.10;99.90;;;;;;5051839;28;20074;-59
2022/09/24 03:58:20;;;;;;;14.95;5.65;;;13.00;99.90;;;;;;5048006;28;20052;-59
2022/09/24 04:00:46;;;;;;;13.68;5.90;;;13.00;99.90;;;;;;5050904;28;20048;-59
2022/09/24 04:03:13;;;;;;;8.32;5.20;;;12.90;99.90;;;;;;5046290;28;20155;-59
2022/09/24 04:05:41;;;;;;;14.40;6.22;;;12.80;99.90;;;;;;5030555;28;20045;-59
2022/09/24 04:08:07;;;;;;;12.02;6.03;;;12.70;99.90;;;;;;5031666;28;20508;-59
2022/09/24 04:10:34;;;;;;;22.83;6.53;;;12.70;99.90;;;;;;5050161;28;20416;-60
2022/09/24 04:13:01;;;;;;;15.65;6.53;;;12.60;99.90;;;;;;5051624;28;20080;-60
2022/09/24 04:15:28;;;;;;;16.30;7.45;;;12.60;99.90;;;;;;5051051;28;20063;-60
2022/09/24 04:17:56;;;;;;;13.70;6.47;;;12.60;99.90;;;;;;5050570;28;20067;-60
2022/09/24 04:20:27;;;;;;;14.85;7.05;;;12.70;99.90;;;;;;5052372;28;20067;-59
2022/09/24 04:22:55;;;;;;;15.55;6.40;;;12.80;99.90;;;;;;5051356;28;20048;-59
2022/09/24 04:25:22;;;;;;;17.77;7.00;;;12.80;99.90;;;;;;5053393;28;20055;-58
2022/09/24 04:27:56;;;;;;;17.10;5.72;;;12.70;99.90;;;;;;5050991;28;20048;-60
2022/09/24 04:30:23;;;;;;;10.73;6.40;;;12.80;99.90;;;;;;5050365;28;20073;-59
2022/09/24 04:32:50;;;;;;;12.10;6.53;;;12.70;99.90;;;;;;5051497;28;20083;-59
2022/09/24 04:35:18;;;;;;;8.90;5.93;;;12.60;99.90;;;;;;5050202;28;20519;-59
2022/09/24 04:37:45;;;;;;;13.10;6.82;;;12.50;99.90;;;;;;5051878;28;20056;-59
2022/09/24 04:40:12;;;;;;;15.45;6.97;;;12.50;99.90;;;;;;5051460;28;20510;-59
2022/09/24 04:42:39;;;;;;;14.60;6.95;;;12.50;99.90;;;;;;5051410;28;20051;-59
2022/09/24 04:45:06;;;;;;;14.93;6.93;;;12.50;99.90;;;;;;5050321;28;20075;-58
2022/09/24 04:47:34;;;;;;;18.08;7.10;;;12.50;99.90;;;;;;5051244;28;20048;-58
2022/09/24 04:50:02;;;;;;;18.27;8.00;;;12.50;99.90;;;;;;5050042;28;20071;-58
2022/09/24 04:52:31;;;;;;;21.67;7.47;;;12.40;99.90;;;;;;5033550;28;20045;-56
2022/09/24 04:54:59;;;;;;;16.25;6.70;;;12.30;99.90;;;;;;5033621;28;20103;-58
2022/09/24 04:57:26;;;;;;;13.13;6.97;;;12.30;99.90;;;;;;5050016;28;20048;-58
2022/09/24 04:59:53;;;;;;;19.48;8.13;;;12.30;99.90;;;;;;5049860;28;20068;-58
2022/09/24 05:02:20;;;;;;;13.63;6.05;;;12.20;99.90;;;;;;5050165;28;20166;-58
2022/09/24 05:04:47;;;;;;;13.20;6.30;;;12.20;99.90;;;;;;5033708;28;20503;-59
2022/09/24 05:07:13;;;;;;;15.23;6.68;;;12.20;99.90;;;;;;5050814;28;20052;-58
2022/09/24 05:09:40;;;;;;;20.60;6.43;;;12.10;99.90;;;;;;5049702;28;20128;-58
2022/09/24 05:12:07;;;;;;;15.88;6.70;;;12.10;99.90;;;;;;5051019;28;20045;-60
2022/09/24 05:14:34;;;;;;;7.40;5.30;;;12.10;99.90;;;;;;5050352;28;20045;-58
2022/09/24 05:17:01;;;;;;;17.13;6.32;;;12.00;99.90;;;;;;5051572;28;20084;-57
2022/09/24 05:19:28;;;;;;;14.63;6.80;;;11.90;99.90;;;;;;5051024;28;20045;-58
2022/09/24 05:21:54;;;;;;;11.57;5.68;;;11.90;99.90;;;;;;5049888;28;20423;-58
2022/09/24 05:24:21;;;;;;;11.90;5.93;;;11.80;99.90;;;;;;5054764;28;20045;-59
2022/09/24 05:29:33;;;;;;;11.93;5.80;;;11.80;99.90;;;;;;5051939;28;20463;-59
2022/09/24 05:32:04;;;;;;;17.48;6.55;;;11.70;99.90;;;;;;5052309;28;20136;-58
2022/09/24 05:34:31;;;;;;;14.73;6.03;;;11.70;99.90;;;;;;5051912;28;20531;-59
2022/09/24 05:36:58;;;;;;;18.55;6.57;;;11.70;99.90;;;;;;5041968;28;20045;-59
2022/09/24 05:39:26;;;;;;;13.38;6.07;;;11.60;99.90;;;;;;5053254;28;20056;-59
2022/09/24 05:42:00;;;;;;;11.23;6.00;;;11.70;99.90;;;;;;5052234;28;20076;-59
2022/09/24 05:44:27;;;;;;;11.32;6.30;;;11.70;99.90;;;;;;5054752;28;20099;-59
2022/09/24 05:46:53;;;;;;;16.20;7.15;;;11.60;99.90;;;;;;5054451;28;20204;-59
2022/09/24 05:49:20;;;;;;;18.17;7.82;;;11.60;99.90;;;;;;5053545;28;20048;-59
2022/09/24 05:51:48;;;;;;;13.63;6.30;;;11.60;99.90;;;;;;5053978;28;20063;-59
2022/09/24 05:54:16;;;;;;;18.35;7.15;;;11.60;99.90;;;;;;5054331;28;20056;-59
2022/09/24 05:56:43;;;;;;;15.02;6.68;;;11.60;99.90;;;;;;5047299;28;20045;-58
2022/09/24 05:59:10;;;;;;;20.27;7.72;;;11.50;99.90;;;;;;5042855;28;20045;-58
2022/09/24 06:01:36;;;;;;;14.27;7.80;;;11.50;99.90;;;;;;5049335;28;20488;-58
2022/09/24 06:04:03;;;;;;;19.10;8.02;;;11.40;99.90;;;;;;5053035;28;20095;-59
2022/09/24 06:06:34;;;;;;;23.90;8.05;;;11.40;99.90;;;;;;5054094;28;20056;-58
2022/09/24 06:09:01;;;;;;;11.55;6.80;;;11.40;99.90;;;;;;5036535;28;20053;-60
2022/09/24 06:11:33;;;;;;;14.60;6.00;;;11.40;99.90;;;;;;4695043;28;10000278;-59
2022/09/24 06:14:07;;;;;;;15.65;5.57;;;11.40;99.90;;;;;;5047356;28;20407;-59
2022/09/24 06:16:34;;;;;;;10.40;5.55;;;11.40;99.90;;;;;;5050055;28;20080;-58
2022/09/24 06:19:01;;;;;;;14.77;7.05;;;11.40;99.90;;;;;;5038819;28;20087;-57
2022/09/24 06:21:28;;;;;;;12.77;5.30;;;11.40;99.90;;;;;;5048807;28;20060;-59
2022/09/24 06:23:55;;;;;;;15.02;5.82;;;11.40;99.90;;;;;;5038588;28;20049;-57
2022/09/24 06:26:22;;;;;;;7.00;4.47;;;11.50;99.90;;;;;;5036843;28;20044;-57
2022/09/24 06:28:48;;;;;;;8.98;4.60;;;11.50;99.90;;;;;;5050164;28;20045;-56
2022/09/24 06:31:15;;;;;;;14.00;4.88;;;11.50;99.90;;;;;;5050009;28;20049;-58
2022/09/24 06:33:42;;;;;;;15.57;4.43;;;11.50;99.90;;;;;;5049406;28;20524;-59
2022/09/24 06:36:10;;;;;;;14.30;4.65;;;11.60;99.90;;;;;;5050758;28;20092;-57
2022/09/24 06:38:39;;;;;;;17.52;5.03;;;11.50;99.90;;;;;;5049123;28;20445;-58
2022/09/24 06:41:06;;;;;;;13.25;6.75;;;11.60;99.90;;;;;;5050690;28;20041;-58
2022/09/24 06:43:33;;;;;;;13.82;4.65;;;11.70;99.90;;;;;;5050825;28;20053;-58
2022/09/24 06:46:00;;;;;;;11.68;4.45;;;11.80;99.90;;;;;;5051221;28;20049;-58
2022/09/24 06:48:27;;;;;;;8.15;4.13;;;11.80;99.90;;;;;;5048718;28;20051;-59
2022/09/24 06:50:55;;;;;;;10.90;4.20;;;11.90;99.90;;;;;;5033085;28;20041;-61
2022/09/24 06:53:22;;;;;;;9.77;5.65;;;12.00;99.90;;;;;;5048872;28;20522;-57
2022/09/24 06:55:49;;;;;;;10.10;4.78;;;12.00;99.90;;;;;;5050296;28;20052;-58
2022/09/24 06:58:18;;;;;;;12.63;4.45;;;12.00;99.90;;;;;;5050617;28;20049;-57
2022/09/24 07:01:00;;;;;;;12.90;5.40;;;12.00;99.90;;;;;;5050805;28;20053;-57
2022/09/24 07:03:28;;;;;;;14.88;5.22;;;12.10;99.90;;;;;;5033140;28;20500;-59
2022/09/24 07:05:58;;;;;;;11.88;4.32;;;12.20;99.90;;;;;;5032958;28;20041;-59
2022/09/24 07:08:24;;;;;;;11.25;4.57;;;12.30;99.90;;;;;;5032921;28;20072;-59
2022/09/24 07:10:51;;;;;;;10.82;5.88;;;12.30;99.90;;;;;;5050390;28;20535;-58
2022/09/24 07:13:20;;;;;;;16.83;5.28;;;12.40;99.90;;;;;;5050824;28;20428;-60
2022/09/24 07:15:51;;;;;;;13.65;4.68;;;12.40;99.90;;;;;;5051035;28;20056;-60
2022/09/24 07:18:18;;;;;;;12.35;4.53;;;12.40;99.90;;;;;;5049856;28;20049;-59
2022/09/24 07:20:53;;;;;;;14.30;5.10;;;12.40;99.90;;;;;;5050684;28;20061;-59
2022/09/24 07:23:20;;;;;;;10.80;5.60;;;12.50;99.90;;;;;;5052201;28;20053;-58
2022/09/24 07:25:47;;;;;;;11.93;4.82;;;12.50;99.90;;;;;;5056423;28;20055;-58
2022/09/24 07:28:17;;;;;;;12.38;4.90;;;12.60;99.90;;;;;;5053866;28;20116;-59
2022/09/24 07:30:44;;;;;;;14.68;5.65;;;12.50;99.90;;;;;;5052113;28;20519;-58
2022/09/24 07:33:11;;;;;;;12.93;5.35;;;12.50;99.90;;;;;;5052631;28;20057;-58
2022/09/24 07:35:38;;;;;;;11.70;4.95;;;12.60;99.90;;;;;;5050634;28;20408;-58
2022/09/24 07:38:07;;;;;;;20.23;5.53;;;12.60;99.90;;;;;;5049408;28;20071;-58
2022/09/24 07:40:34;;;;;;;12.55;4.10;;;12.60;99.90;;;;;;5014923;28;20041;-58
2022/09/24 07:43:01;;;;;;;13.85;4.93;;;12.70;99.90;;;;;;5048891;28;20048;-59
2022/09/24 07:45:28;;;;;;;10.73;4.63;;;12.70;99.90;;;;;;5047594;28;20047;-58
2022/09/24 07:48:02;;;;;;;13.82;5.35;;;12.70;99.90;;;;;;5047275;28;20102;-58
2022/09/24 07:50:30;;;;;;;11.13;4.68;;;12.70;99.90;;;;;;5048556;28;20055;-58
2022/09/24 07:52:57;;;;;;;11.98;4.47;;;12.70;99.90;;;;;;5049491;28;20061;-57
2022/09/24 07:55:24;;;;;;;11.30;4.75;;;12.80;99.90;;;;;;5049952;28;20417;-58
2022/09/24 07:57:52;;;;;;;11.15;4.93;;;12.80;99.90;;;;;;5049714;28;20114;-59
2022/09/24 08:00:20;;;;;;;15.32;5.53;;;12.90;99.90;;;;;;5031046;28;20048;-58
2022/09/24 08:02:47;;;;;;;24.17;7.03;;;12.90;99.90;;;;;;5049075;28;20065;-58
2022/09/24 08:05:15;;;;;;;10.73;5.90;;;12.90;99.90;;;;;;5049192;28;20080;-59
2022/09/24 08:07:42;;;;;;;15.98;8.25;;;12.80;99.90;;;;;;5028179;28;20069;-59
2022/09/24 08:10:09;;;;;;;13.85;6.28;;;12.90;99.90;;;;;;5038744;28;20044;-59
2022/09/24 08:12:36;;;;;;;18.38;5.70;;;12.90;99.90;;;;;;5042779;28;20059;-59
2022/09/24 08:15:03;;;;;;;14.73;5.97;;;12.90;99.90;;;;;;5047796;28;20467;-57
2022/09/24 08:17:30;;;;;;;12.20;5.80;;;12.90;99.90;;;;;;5049349;28;20061;-58
2022/09/24 08:19:57;;;;;;;12.07;6.50;;;12.90;99.90;;;;;;5049354;28;20051;-58
2022/09/24 08:22:25;;;;;;;17.45;6.32;;;13.00;99.90;;;;;;5030833;28;20052;-59
2022/09/24 08:24:52;;;;;;;14.73;6.00;;;13.10;99.90;;;;;;5048518;28;20500;-58
2022/09/24 08:27:22;;;;;;;13.27;6.05;;;13.10;99.90;;;;;;5048140;28;20132;-59
2022/09/24 08:29:50;;;;;;;8.70;5.53;;;13.20;99.90;;;;;;5052051;28;20536;-57
2022/09/24 08:32:19;;;;;;;10.73;5.60;;;13.20;99.90;;;;;;5050397;28;20508;-59
2022/09/24 08:34:46;;;;;;;11.55;6.20;;;13.30;99.90;;;;;;5051785;28;20594;-60
2022/09/24 08:37:13;;;;;;;10.30;5.97;;;13.30;99.90;;;;;;5051333;28;20049;-59
2022/09/24 08:39:39;;;;;;;11.88;5.93;;;13.40;99.90;;;;;;5052026;28;20071;-59
2022/09/24 08:42:24;;;;;;;14.05;5.63;;;13.50;99.90;;;;;;5051949;28;20123;-58
2022/09/24 08:47:37;;;;;;;12.68;4.90;;;13.60;99.90;;;;;;5050719;28;20089;-59
2022/09/24 08:50:29;;;;;;;7.10;4.45;;;13.60;99.90;;;;;;5050713;28;20049;-58
2022/09/24 08:53:13;;;;;;;11.27;5.95;;;13.60;99.90;;;;;;5033422;28;20041;-59
2022/09/24 08:55:47;;;;;;;12.80;5.72;;;13.70;99.90;;;;;;5032348;28;20487;-59
2022/09/24 08:58:51;;;;;;;16.48;5.93;;;13.70;99.90;;;;;;5017879;28;20049;-60
2022/09/24 09:01:49;;;;;;;14.13;7.93;;;13.80;99.90;;;;;;5051215;28;20072;-58
2022/09/24 09:04:32;;;;;;;12.15;5.70;;;13.90;99.90;;;;;;5033635;28;20106;-59
2022/09/24 09:07:17;;;;;;;12.63;5.63;;;13.90;99.90;;;;;;5019211;28;20072;-58
2022/09/24 09:09:59;;;;;;;12.77;6.10;;;14.00;99.90;;;;;;5051411;28;20080;-58
2022/09/24 09:12:33;;;;;;;11.85;5.13;;;14.10;99.90;;;;;;5046214;28;20048;-59
2022/09/24 09:15:07;;;;;;;13.18;5.47;;;14.20;99.90;;;;;;5051658;28;20460;-59
2022/09/24 09:17:41;;;;;;;12.48;5.95;;;14.30;99.90;;;;;;5035314;28;20045;-59
2022/09/24 09:20:18;;;;;;;;;;;14.50;99.90;;;;;;5036786;28;20135;-59
2022/09/24 09:22:47;;;;;;;11.82;4.43;;;14.50;99.90;;;;;;5037035;28;19920;-60
2022/09/24 09:25:28;;;;;;;11.00;4.15;;;14.60;99.90;;;;;;5037570;28;20059;-59
2022/09/24 09:28:01;;;;;;;10.20;4.68;;;14.80;99.90;;;;;;5053583;28;20045;-59
2022/09/24 09:30:42;;;;;;;8.30;4.60;;;14.90;99.90;;;;;;5053484;28;20045;-59
2022/09/24 09:33:18;;;;;;;11.20;4.45;;;14.90;99.90;;;;;;5053003;28;20041;-58
2022/09/24 09:36:17;;;;;;;14.40;4.47;;;15.00;99.90;;;;;;5054101;28;20063;-59
2022/09/24 09:38:53;;;;;;;11.30;4.30;;;14.90;99.90;;;;;;5053734;28;20124;-59
2022/09/24 09:41:52;;;;;;;10.23;3.17;;;14.80;99.90;;;;;;5037977;28;20084;-59
2022/09/24 09:44:24;;;;;;;9.95;3.08;;;14.90;99.90;;;;;;5045047;28;20143;-59
2022/09/24 09:46:59;;;;;;;6.78;2.75;;;15.00;99.90;;;;;;5037538;28;20512;-60
2022/09/24 09:49:28;;;;;;;8.95;2.63;;;15.10;99.90;;;;;;5037807;28;20535;-58
2022/09/24 09:51:56;;;;;;;5.78;2.60;;;15.10;99.90;;;;;;5037092;28;20531;-59
2022/09/24 09:54:35;;;;;;;4.28;2.25;;;15.10;99.90;;;;;;5054778;28;20041;-60
2022/09/24 09:57:02;;;;;;;10.00;2.72;;;15.10;99.90;;;;;;5017563;28;20531;-59
2022/09/24 09:59:29;;;;;;;4.72;2.53;;;15.10;99.90;;;;;;5031731;28;20475;-60
2022/09/24 10:01:56;;;;;;;6.10;2.13;;;15.10;99.90;;;;;;5054940;28;20133;-58
2022/09/24 10:04:40;;;;;;;6.60;2.13;;;15.20;99.90;;;;;;5053266;28;20049;-60
2022/09/24 10:07:11;;;;;;;9.73;3.07;;;15.20;99.90;;;;;;5053121;28;20646;-60
2022/09/24 10:09:38;;;;;;;4.32;2.28;;;15.30;99.90;;;;;;5053484;28;20290;-59
2022/09/24 10:12:15;;;;;;;8.50;2.60;;;15.40;99.90;;;;;;5036647;28;20052;-58
2022/09/24 10:14:42;;;;;;;8.98;2.13;;;15.40;99.90;;;;;;5036352;28;20148;-59
2022/09/24 10:17:14;;;;;;;8.68;2.53;;;15.50;99.90;;;;;;5036978;28;20485;-59
2022/09/24 10:19:44;;;;;;;10.07;1.95;;;15.60;99.90;;;;;;5036243;28;20037;-60
2022/09/24 10:22:20;;;;;;;4.22;1.75;;;15.70;99.90;;;;;;5021009;28;20137;-58
2022/09/24 10:24:47;;;;;;;8.77;2.17;;;15.80;99.90;;;;;;5052568;28;20132;-59
2022/09/24 10:27:29;;;;;;;4.95;1.58;;;16.00;99.90;;;;;;5052629;28;20094;-58
2022/09/24 10:32:41;;;;;;;6.38;1.70;;;16.30;99.90;;;;;;5052923;28;20132;-59
2022/09/24 10:35:31;;;;;;;5.88;1.60;;;16.20;99.90;;;;;;5053650;28;20053;-59
2022/09/24 10:37:58;;;;;;;5.65;1.25;;;16.20;99.90;;;;;;5032583;28;20671;-59
2022/09/24 10:40:29;;;;;;;6.75;1.73;;;16.30;99.90;;;;;;5045197;28;20056;-58
2022/09/24 10:42:58;;;;;;;3.55;1.52;;;16.30;99.90;;;;;;5054020;28;20045;-59
2022/09/24 10:45:56;;;;;;;5.13;1.85;;;16.40;99.90;;;;;;5054066;28;20045;-60
2022/09/24 10:48:26;;;;;;;6.05;1.55;;;16.50;99.90;;;;;;5054129;28;20049;-59
2022/09/24 10:50:57;;;;;;;6.93;2.20;;;16.50;99.90;;;;;;5053558;28;20041;-59
2022/09/24 10:53:31;;;;;;;4.18;1.42;;;16.50;99.90;;;;;;5053688;28;20407;-59
2022/09/24 10:56:29;;;;;;;5.38;1.13;;;16.60;99.90;;;;;;5052219;28;20044;-60
2022/09/24 10:59:18;;;;;;;4.53;1.20;;;16.60;99.90;;;;;;5054064;28;20049;-58
2022/09/24 11:01:57;;;;;;;3.58;2.15;;;16.70;99.90;;;;;;5053513;28;20052;-58
2022/09/24 11:04:40;;;;;;;3.97;1.27;;;16.70;99.90;;;;;;5053666;28;20045;-58
2022/09/24 11:07:18;;;;;;;6.28;1.38;;;16.70;99.90;;;;;;5052109;28;20182;-60
2022/09/24 11:10:00;;;;;;;9.85;2.80;;;16.70;99.90;;;;;;5052756;28;20469;-59
2022/09/24 11:12:58;;;;;;;2.55;1.23;;;16.70;99.90;;;;;;5052496;28;20083;-60
2022/09/24 11:16:02;;;;;;;7.78;1.50;;;16.70;99.90;;;;;;5053406;28;20060;-60
2022/09/24 11:18:59;;;;;;;4.35;1.50;;;16.80;99.90;;;;;;5042735;28;20065;-60
2022/09/24 11:21:44;;;;;;;6.82;1.40;;;17.00;99.90;;;;;;4702446;28;9999923;-59
2022/09/24 11:24:30;;;;;;;4.45;1.30;;;17.10;99.90;;;;;;5054446;28;20048;-59
2022/09/24 11:27:06;;;;;;;4.03;1.95;;;17.10;99.90;;;;;;5059134;28;20068;-59
2022/09/24 11:29:50;;;;;;;8.45;1.25;;;17.10;99.90;;;;;;5059402;28;20131;-60
2022/09/24 11:32:42;;;;;;;4.57;1.63;;;17.20;99.90;;;;;;5059784;28;20668;-59
2022/09/24 11:35:50;;;;;;;4.03;0.90;;;17.30;99.90;;;;;;5060843;28;20068;-59
2022/09/24 11:38:26;;;;;;;5.22;1.40;;;17.30;99.90;;;;;;5061017;28;20045;-60
2022/09/24 11:40:56;;;;;;;4.22;1.30;;;17.40;99.90;;;;;;5059273;28;20041;-60
2022/09/24 11:43:40;;;;;;;2.63;0.85;;;17.30;99.90;;;;;;5058131;28;20041;-58
2022/09/24 11:46:26;;;;;;;4.78;0.98;;;17.30;99.90;;;;;;5057522;28;20481;-58
2022/09/24 11:49:04;;;;;;;2.85;0.77;;;17.20;99.90;;;;;;5057300;28;20041;-59
2022/09/24 11:51:44;;;;;;;5.78;1.30;;;17.20;99.90;;;;;;5038101;28;20071;-60
2022/09/24 11:54:29;;;;;;;10.20;2.40;;;17.30;99.90;;;;;;5053850;28;20067;-59
2022/09/24 11:57:11;;;;;;;2.85;0.95;;;17.30;99.90;;;;;;5053779;28;20049;-59
2022/09/24 12:00:06;;;;;;;5.97;2.20;;;17.30;99.90;;;;;;5053423;28;20049;-59
2022/09/24 12:02:42;;;;;;;6.93;1.00;;;17.40;99.90;;;;;;5054214;28;20049;-59
2022/09/24 12:05:13;;;;;;;8.07;1.25;;;17.60;99.90;;;;;;5054135;28;20170;-58
2022/09/24 12:08:03;;;;;;;7.63;1.70;;;17.70;99.90;;;;;;5053137;28;20128;-59
2022/09/24 12:10:38;;;;;;;11.55;1.98;;;17.60;99.90;;;;;;5037765;28;20049;-59
2022/09/24 12:13:30;;;;;;;8.10;1.35;;;17.60;99.90;;;;;;5051812;28;20049;-60
2022/09/24 12:16:05;;;;;;;2.90;1.30;;;17.60;99.90;;;;;;5052297;28;20053;-60
2022/09/24 12:18:34;;;;;;;4.03;1.35;;;17.70;99.90;;;;;;5015555;28;20137;-61
2022/09/24 12:23:50;;;;;;;3.50;1.55;;;17.90;99.90;;;;;;4923950;23;20083;-59
2022/09/24 12:26:17;;;;;;;7.20;1.20;;;17.90;99.90;;;;;;5034349;28;20072;-60
2022/09/24 12:34:46;;;;;;;3.25;1.13;;;18.10;99.90;;;;;;5050133;28;20075;-58
2022/09/24 12:37:15;;;;;;;3.78;0.90;;;18.10;99.90;;;;;;5069603;28;20135;-59
2022/09/24 12:39:56;;;;;;;1.75;0.70;;;18.00;99.90;;;;;;5063485;28;20500;-61
2022/09/24 12:42:24;;;;;;;8.55;1.23;;;18.00;99.90;;;;;;5031421;28;20079;-58
2022/09/24 12:44:53;;;;;;;2.65;0.75;;;18.00;99.90;;;;;;5028392;28;20056;-59
2022/09/24 12:47:25;;;;;;;3.03;0.70;;;18.10;99.90;;;;;;5033856;28;20515;-59
2022/09/24 12:50:00;;;;;;;7.63;1.83;;;18.30;99.90;;;;;;5034618;28;20045;-59
2022/09/24 12:52:39;;;;;;;4.65;0.98;;;18.40;99.40;;;;;;5065631;28;20099;-59
2022/09/24 12:55:27;;;;;;;1.88;0.60;;;18.40;97.20;;;;;;5046576;28;20052;-60
2022/09/24 12:58:04;;;;;;;2.30;0.68;;;18.20;94.20;;;;;;5034359;28;20052;-60
2022/09/24 13:00:38;;;;;;;1.85;0.60;;;18.10;98.80;;;;;;5040635;28;20064;-60
2022/09/24 13:03:05;;;;;;;3.63;0.73;;;18.10;99.80;;;;;;5069005;28;20488;-58
2022/09/24 13:05:45;;;;;;;3.45;1.02;;;18.10;97.90;;;;;;5059002;28;20144;-59
2022/09/24 13:08:22;;;;;;;2.35;0.93;;;18.20;96.10;;;;;;5051495;28;20048;-59
2022/09/24 13:10:57;;;;;;;5.82;1.13;;;18.30;92.80;;;;;;5057899;28;20072;-59
2022/09/24 13:13:30;;;;;;;3.65;1.40;;;18.40;96.20;;;;;;5067855;28;20054;-59
2022/09/24 13:16:01;;;;;;;2.00;1.00;;;18.50;94.40;;;;;;5040556;28;20049;-59
2022/09/24 13:18:28;;;;;;;4.20;1.00;;;18.50;96.00;;;;;;5048662;28;20637;-61
2022/09/24 13:21:04;;;;;;;3.47;0.82;;;18.60;94.40;;;;;;5063894;28;20044;-59
2022/09/24 13:23:41;;;;;;;3.28;0.73;;;18.70;96.50;;;;;;5030947;28;20093;-59
2022/09/24 13:26:11;;;;;;;2.55;0.80;;;18.80;96.90;;;;;;5039536;28;20103;-59
2022/09/24 13:28:50;;;;;;;2.22;1.08;;;18.70;96.50;;;;;;5018150;28;20080;-58